createdAt,value
2022-09-28T00:00:53.413Z,93.40
2022-09-28T00:03:23.997Z,93.40
2022-09-28T00:05:54.641Z,93.59
2022-09-28T00:08:24.813Z,93.61
2022-09-28T00:10:55.496Z,93.54
2022-09-28T00:13:25.595Z,93.69
2022-09-28T00:15:55.862Z,93.49
2022-09-28T00:18:26.396Z,93.51
2022-09-28T00:20:56.777Z,93.50
2022-09-28T00:23:27.313Z,93.34
2022-09-28T00:25:57.859Z,93.21
2022-09-28T00:28:28.500Z,93.21
2022-09-28T00:30:59.217Z,93.09
2022-09-28T00:33:29.758Z,92.98
2022-09-28T00:36:00.292Z,92.82
2022-09-28T00:38:30.896Z,92.81
2022-09-28T00:41:01.204Z,92.71
2022-09-28T00:43:31.765Z,92.70
2022-09-28T00:46:02.371Z,92.67
2022-09-28T00:48:32.806Z,92.74
2022-09-28T00:51:03.435Z,92.67
2022-09-28T00:53:33.933Z,92.59
2022-09-28T00:56:04.562Z,92.46
2022-09-28T00:58:35.061Z,92.39
2022-09-28T01:01:05.641Z,92.47
2022-09-28T01:03:36.165Z,92.49
2022-09-28T01:06:06.832Z,92.55
2022-09-28T01:08:37.264Z,92.46
2022-09-28T01:11:07.545Z,92.29
2022-09-28T01:13:38.150Z,92.42
2022-09-28T01:16:08.745Z,92.40
2022-09-28T01:18:38.989Z,92.39
2022-09-28T01:21:09.598Z,92.41
2022-09-28T01:23:40.111Z,92.36
2022-09-28T01:26:10.306Z,92.36
2022-09-28T01:28:40.941Z,92.43
2022-09-28T01:31:11.548Z,92.47
2022-09-28T01:33:41.706Z,92.31
2022-09-28T01:36:12.275Z,92.45
2022-09-28T01:38:42.692Z,92.42
2022-09-28T01:41:13.165Z,92.48
2022-09-28T01:43:43.498Z,92.41
2022-09-28T01:46:14.248Z,92.44
2022-09-28T01:48:44.647Z,92.40
2022-09-28T01:51:15.532Z,92.46
2022-09-28T01:53:45.735Z,92.55
2022-09-28T01:56:16.510Z,92.73
2022-09-28T01:58:46.628Z,92.76
2022-09-28T02:01:17.483Z,92.71
2022-09-28T02:03:47.422Z,92.83
2022-09-28T02:06:18.189Z,92.81
2022-09-28T02:08:48.229Z,92.53
2022-09-28T02:11:18.441Z,92.59
2022-09-28T02:13:49.088Z,92.57
2022-09-28T02:16:19.071Z,92.70
2022-09-28T02:18:49.599Z,92.58
2022-09-28T02:21:20.367Z,92.50
2022-09-28T02:23:50.989Z,92.51
2022-09-28T02:26:21.193Z,92.36
2022-09-28T02:28:51.507Z,92.43
2022-09-28T02:31:22.111Z,92.42
2022-09-28T02:33:52.632Z,92.38
2022-09-28T02:36:23.487Z,92.39
2022-09-28T02:38:53.771Z,92.19
2022-09-28T02:41:24.026Z,92.29
2022-09-28T02:43:54.223Z,92.21
2022-09-28T02:46:24.288Z,92.53
2022-09-28T02:49:10.389Z,92.62
2022-09-28T02:51:25.448Z,92.70
2022-09-28T02:53:56.044Z,92.63
2022-09-28T02:56:26.892Z,92.69
2022-09-28T02:58:57.713Z,92.67
2022-09-28T03:01:27.712Z,92.63
2022-09-28T03:03:58.431Z,92.71
2022-09-28T03:06:28.811Z,92.61
2022-09-28T03:08:59.163Z,92.80
2022-09-28T03:11:29.902Z,92.91
2022-09-28T03:14:00.500Z,92.84
2022-09-28T03:16:30.742Z,92.84
2022-09-28T03:19:00.972Z,92.91
2022-09-28T03:21:31.510Z,93.12
2022-09-28T03:24:01.803Z,93.06
2022-09-28T03:26:32.557Z,93.20
2022-09-28T03:29:03.225Z,93.24
2022-09-28T03:31:33.909Z,93.27
2022-09-28T03:34:04.473Z,93.04
2022-09-28T03:36:34.664Z,92.97
2022-09-28T03:39:05.517Z,93.09
2022-09-28T03:41:36.407Z,93.09
2022-09-28T03:44:06.982Z,93.04
2022-09-28T03:46:37.157Z,92.96
2022-09-28T03:49:07.948Z,92.89
2022-09-28T03:51:38.144Z,93.04
2022-09-28T03:54:08.486Z,93.16
2022-09-28T03:56:38.673Z,93.20
2022-09-28T03:59:08.994Z,93.23
2022-09-28T04:01:39.927Z,93.33
2022-09-28T04:04:09.897Z,93.49
2022-09-28T04:06:40.324Z,93.56
2022-09-28T04:09:10.831Z,93.25
2022-09-28T04:11:59.764Z,93.45
2022-09-28T04:14:11.484Z,93.38
2022-09-28T04:16:42.341Z,93.35
2022-09-28T04:19:12.552Z,93.55
2022-09-28T04:21:43.040Z,93.43
2022-09-28T04:24:13.135Z,93.43
2022-09-28T04:26:43.319Z,93.58
2022-09-28T04:29:13.775Z,93.75
2022-09-28T04:31:43.958Z,93.75
2022-09-28T04:34:14.160Z,93.91
2022-09-28T04:36:44.866Z,94.38
2022-09-28T04:39:15.485Z,94.48
2022-09-28T04:41:46.030Z,94.28
2022-09-28T04:44:15.985Z,94.48
2022-09-28T04:46:46.496Z,94.42
2022-09-28T04:49:17.015Z,94.31
2022-09-28T04:51:47.598Z,94.40
2022-09-28T04:54:18.204Z,94.29
2022-09-28T04:56:48.205Z,94.47
2022-09-28T04:59:19.045Z,94.51
2022-09-28T05:01:49.125Z,94.56
2022-09-28T05:04:22.373Z,94.61
2022-09-28T05:06:49.880Z,94.41
2022-09-28T05:09:20.155Z,94.24
2022-09-28T05:11:50.737Z,94.14
2022-09-28T05:14:21.378Z,93.95
2022-09-28T05:16:52.198Z,93.86
2022-09-28T05:19:22.453Z,93.59
2022-09-28T05:21:53.326Z,93.69
2022-09-28T05:24:24.152Z,93.96
2022-09-28T05:26:54.479Z,94.22
2022-09-28T05:29:26.417Z,94.35
2022-09-28T05:31:55.666Z,94.34
2022-09-28T05:34:25.888Z,94.43
2022-09-28T05:36:56.543Z,94.37
2022-09-28T05:39:26.868Z,94.60
2022-09-28T05:41:56.725Z,94.68
2022-09-28T05:44:27.331Z,94.75
2022-09-28T05:46:57.667Z,94.82
2022-09-28T05:49:28.059Z,95.03
2022-09-28T05:51:58.854Z,95.03
2022-09-28T05:54:29.691Z,95.41
2022-09-28T05:56:59.925Z,95.46
2022-09-28T05:59:30.614Z,95.44
2022-09-28T06:02:00.630Z,95.38
2022-09-28T06:04:31.480Z,95.44
2022-09-28T06:07:02.015Z,95.27
2022-09-28T06:09:32.530Z,95.21
2022-09-28T06:12:03.143Z,95.75
2022-09-28T06:14:34.061Z,95.84
2022-09-28T06:17:04.246Z,96.27
2022-09-28T06:19:34.814Z,95.88
2022-09-28T06:22:05.442Z,95.90
2022-09-28T06:24:35.867Z,95.77
2022-09-28T06:27:06.039Z,95.99
2022-09-28T06:29:36.336Z,95.78
2022-09-28T06:32:06.518Z,95.86
2022-09-28T06:34:37.229Z,95.93
2022-09-28T06:37:08.029Z,95.84
2022-09-28T06:39:38.447Z,95.44
2022-09-28T06:42:08.471Z,95.85
2022-09-28T06:44:39.158Z,95.93
2022-09-28T06:47:09.708Z,95.29
2022-09-28T06:49:40.600Z,95.24
2022-09-28T06:52:11.399Z,95.61
2022-09-28T06:54:42.298Z,95.58
2022-09-28T06:57:13.085Z,95.36
2022-09-28T06:59:43.164Z,95.17
2022-09-28T07:02:14.085Z,94.61
2022-09-28T07:04:44.744Z,94.35
2022-09-28T07:07:15.581Z,94.34
2022-09-28T07:09:50.330Z,92.53
2022-09-28T07:12:16.662Z,93.16
2022-09-28T07:14:48.325Z,93.88
2022-09-28T07:17:17.543Z,93.65
2022-09-28T07:19:47.533Z,92.95
2022-09-28T07:22:19.581Z,91.68
2022-09-28T07:24:48.187Z,93.29
2022-09-28T07:27:18.897Z,94.03
2022-09-28T07:29:48.903Z,93.65
2022-09-28T07:32:19.198Z,92.64
2022-09-28T07:34:50.231Z,93.97
2022-09-28T07:37:20.492Z,93.91
2022-09-28T07:39:51.160Z,94.32
2022-09-28T07:42:21.895Z,94.54
2022-09-28T07:44:52.168Z,94.91
2022-09-28T07:47:22.841Z,94.13
2022-09-28T07:49:53.030Z,93.87
2022-09-28T07:52:23.817Z,93.64
2022-09-28T07:54:54.133Z,93.78
2022-09-28T07:59:55.299Z,93.85
2022-09-28T08:02:25.602Z,93.54
2022-09-28T08:04:55.869Z,93.83
2022-09-28T08:07:26.554Z,93.85
2022-09-28T08:09:56.981Z,94.71
2022-09-28T08:12:27.262Z,94.61
2022-09-28T08:14:57.309Z,93.79
2022-09-28T08:17:27.846Z,93.72
2022-09-28T08:19:58.103Z,94.10
2022-09-28T08:22:28.660Z,93.61
2022-09-28T08:24:59.241Z,92.66
2022-09-28T08:27:29.778Z,92.53
2022-09-28T08:29:59.774Z,93.22
2022-09-28T08:32:29.995Z,94.05
2022-09-28T08:35:00.396Z,92.54
2022-09-28T08:37:31.281Z,91.96
2022-09-28T08:40:01.726Z,92.70
2022-09-28T08:42:31.837Z,92.86
2022-09-28T08:45:02.445Z,92.98
2022-09-28T08:47:32.884Z,92.49
2022-09-28T08:50:03.416Z,95.03
2022-09-28T08:52:33.561Z,93.77
2022-09-28T08:55:04.066Z,93.38
2022-09-28T08:57:34.256Z,93.16
2022-09-28T09:00:09.564Z,92.68
2022-09-28T09:02:35.937Z,91.99
2022-09-28T09:05:06.455Z,93.62
2022-09-28T09:07:36.445Z,93.29
2022-09-28T09:10:07.050Z,92.16
2022-09-28T09:12:37.174Z,91.29
2022-09-28T09:15:08.066Z,92.57
2022-09-28T09:17:38.605Z,92.98
2022-09-28T09:20:09.020Z,90.85
2022-09-28T09:22:39.053Z,91.75
2022-09-28T09:25:09.808Z,92.72
2022-09-28T09:27:40.357Z,90.53
2022-09-28T09:30:10.679Z,91.86
2022-09-28T09:32:41.139Z,91.57
2022-09-28T09:35:11.431Z,92.13
2022-09-28T09:37:42.158Z,91.85
2022-09-28T09:40:12.959Z,91.97
2022-09-28T09:42:43.454Z,93.07
2022-09-28T09:45:13.559Z,90.91
2022-09-28T09:47:44.172Z,90.46
2022-09-28T09:50:14.367Z,90.62
2022-09-28T09:52:45.100Z,89.82
2022-09-28T09:55:15.914Z,89.55
2022-09-28T09:57:46.331Z,89.59
2022-09-28T10:00:16.617Z,88.80
2022-09-28T10:02:47.168Z,89.32
2022-09-28T10:05:17.909Z,89.11
2022-09-28T10:07:48.071Z,91.39
2022-09-28T10:10:18.786Z,89.46
2022-09-28T10:12:49.638Z,86.35
2022-09-28T10:15:19.328Z,87.87
2022-09-28T10:17:49.897Z,88.09
2022-09-28T10:20:20.103Z,88.24
2022-09-28T10:22:50.632Z,88.56
2022-09-28T10:25:20.901Z,89.13
2022-09-28T10:27:51.063Z,90.30
2022-09-28T10:30:21.626Z,88.05
2022-09-28T10:32:52.137Z,86.80
2022-09-28T10:35:22.639Z,88.01
2022-09-28T10:37:53.127Z,88.23
2022-09-28T10:40:23.669Z,87.71
2022-09-28T10:42:53.852Z,85.52
2022-09-28T10:45:24.394Z,87.27
2022-09-28T10:47:54.869Z,86.11
2022-09-28T10:50:25.129Z,85.71
2022-09-28T10:52:55.237Z,85.80
2022-09-28T10:55:26.033Z,86.92
2022-09-28T10:57:56.536Z,85.20
2022-09-28T11:00:27.059Z,84.97
2022-09-28T11:02:57.606Z,84.34
2022-09-28T11:05:28.107Z,84.96
2022-09-28T11:07:58.536Z,84.66
2022-09-28T11:10:28.798Z,84.67
2022-09-28T11:12:59.297Z,83.70
2022-09-28T11:15:29.826Z,85.69
2022-09-28T11:18:00.300Z,83.48
2022-09-28T11:20:30.832Z,83.07
2022-09-28T11:23:01.332Z,84.33
2022-09-28T11:25:31.507Z,84.78
2022-09-28T11:28:01.993Z,83.50
2022-09-28T11:30:32.570Z,85.08
2022-09-28T11:33:03.127Z,84.79
2022-09-28T11:35:33.667Z,81.75
2022-09-28T11:38:03.936Z,83.85
2022-09-28T11:40:34.505Z,82.83
2022-09-28T11:45:35.401Z,83.84
2022-09-28T11:48:05.935Z,81.13
2022-09-28T11:50:36.419Z,81.03
2022-09-28T11:53:06.857Z,82.91
2022-09-28T11:55:37.139Z,83.05
2022-09-28T11:58:07.521Z,82.64
2022-09-28T12:00:38.074Z,82.01
2022-09-28T12:03:08.647Z,83.00
2022-09-28T12:05:38.986Z,80.60
2022-09-28T12:08:09.408Z,81.33
2022-09-28T12:10:43.359Z,77.46
2022-09-28T12:13:10.345Z,79.38
2022-09-28T12:16:07.502Z,80.31
2022-09-28T12:18:11.314Z,80.72
2022-09-28T12:20:41.746Z,81.35
2022-09-28T12:23:12.200Z,79.41
2022-09-28T12:25:42.683Z,79.76
2022-09-28T12:28:13.141Z,79.93
2022-09-28T12:30:43.721Z,78.54
2022-09-28T12:33:14.115Z,81.01
2022-09-28T12:35:44.614Z,78.62
2022-09-28T12:38:15.017Z,76.81
2022-09-28T12:40:45.564Z,78.98
2022-09-28T12:43:15.941Z,78.27
2022-09-28T12:46:09.848Z,78.59
2022-09-28T12:48:16.860Z,77.95
2022-09-28T12:50:54.670Z,77.25
2022-09-28T12:53:17.784Z,78.47
2022-09-28T12:55:48.092Z,75.40
2022-09-28T12:58:18.334Z,77.92
2022-09-28T13:00:49.039Z,76.66
2022-09-28T13:03:19.551Z,78.59
2022-09-28T13:05:50.093Z,79.43
2022-09-28T13:08:20.679Z,80.13
2022-09-28T13:10:51.150Z,79.73
2022-09-28T13:13:21.698Z,79.54
2022-09-28T13:15:52.104Z,74.94
2022-09-28T13:18:22.461Z,75.59
2022-09-28T13:20:53.306Z,76.64
2022-09-28T13:23:23.376Z,74.89
2022-09-28T13:25:53.821Z,77.44
2022-09-28T13:28:26.996Z,73.23
2022-09-28T13:30:54.855Z,76.34
2022-09-28T13:33:25.199Z,75.14
2022-09-28T13:35:55.711Z,75.62
2022-09-28T13:38:26.206Z,76.76
2022-09-28T13:40:56.588Z,78.00
2022-09-28T13:43:27.029Z,77.36
2022-09-28T13:45:57.555Z,77.25
2022-09-28T13:48:27.913Z,78.68
2022-09-28T13:50:58.463Z,78.68
2022-09-28T13:53:28.780Z,74.52
2022-09-28T13:55:59.219Z,71.43
2022-09-28T13:58:29.638Z,73.32
2022-09-28T14:01:00.093Z,74.99
2022-09-28T14:03:30.512Z,73.95
2022-09-28T14:06:00.948Z,75.68
2022-09-28T14:08:31.460Z,76.67
2022-09-28T14:11:01.881Z,73.76
2022-09-28T14:13:32.245Z,76.00
2022-09-28T14:16:02.724Z,74.01
2022-09-28T14:18:33.067Z,73.44
2022-09-28T14:21:03.630Z,70.79
2022-09-28T14:23:34.188Z,70.50
2022-09-28T14:26:04.357Z,73.83
2022-09-28T14:28:34.795Z,74.22
2022-09-28T14:31:05.356Z,73.22
2022-09-28T14:33:35.621Z,74.41
2022-09-28T14:36:05.754Z,75.35
2022-09-28T14:38:36.143Z,76.47
2022-09-28T14:41:06.777Z,71.76
2022-09-28T14:43:36.959Z,75.02
2022-09-28T14:46:07.402Z,75.88
2022-09-28T14:48:37.849Z,76.09
2022-09-28T14:51:08.267Z,76.22
2022-09-28T14:53:38.623Z,76.87
2022-09-28T14:56:09.025Z,77.32
2022-09-28T14:58:39.426Z,77.47
2022-09-28T15:01:09.838Z,78.21
2022-09-28T15:03:40.189Z,78.24
2022-09-28T15:06:10.604Z,75.02
2022-09-28T15:08:41.012Z,77.40
2022-09-28T15:11:11.466Z,77.06
2022-09-28T15:13:41.872Z,76.21
2022-09-28T15:16:12.344Z,76.54
2022-09-28T15:18:42.765Z,76.15
2022-09-28T15:21:13.214Z,76.98
2022-09-28T15:23:43.363Z,77.13
2022-09-28T15:26:14.354Z,78.04
2022-09-28T15:28:44.184Z,79.82
2022-09-28T15:31:14.761Z,80.89
2022-09-28T15:33:45.089Z,81.30
2022-09-28T15:36:15.676Z,81.97
2022-09-28T15:38:46.041Z,84.36
2022-09-28T15:41:16.467Z,83.84
2022-09-28T15:43:46.956Z,83.88
2022-09-28T15:46:17.540Z,83.93
2022-09-28T15:48:47.861Z,84.79
2022-09-28T15:51:18.445Z,86.31
2022-09-28T15:53:48.775Z,84.57
2022-09-28T15:56:19.255Z,84.35
2022-09-28T15:58:49.721Z,83.80
2022-09-28T16:01:20.295Z,83.78
2022-09-28T16:03:50.656Z,84.03
2022-09-28T16:06:21.208Z,84.66
2022-09-28T16:08:51.631Z,84.88
2022-09-28T16:11:22.069Z,84.99
2022-09-28T16:13:52.558Z,84.86
2022-09-28T16:16:23.070Z,84.81
2022-09-28T16:18:53.422Z,84.52
2022-09-28T16:21:23.902Z,84.33
2022-09-28T16:23:54.295Z,84.58
2022-09-28T16:26:24.815Z,84.34
2022-09-28T16:28:55.209Z,84.13
2022-09-28T16:31:25.735Z,84.38
2022-09-28T16:33:56.101Z,84.37
2022-09-28T16:36:26.632Z,83.95
2022-09-28T16:38:57.049Z,82.21
2022-09-28T16:41:27.493Z,82.70
2022-09-28T16:43:57.943Z,83.04
2022-09-28T16:46:28.575Z,82.80
2022-09-28T16:48:58.868Z,82.64
2022-09-28T16:51:29.372Z,83.02
2022-09-28T16:53:59.876Z,83.18
2022-09-28T16:56:30.405Z,82.86
2022-09-28T16:59:00.950Z,83.57
2022-09-28T17:01:31.688Z,84.17
2022-09-28T17:04:02.193Z,84.30
2022-09-28T17:06:32.462Z,84.23
2022-09-28T17:09:03.085Z,84.31
2022-09-28T17:11:33.766Z,84.04
2022-09-28T17:14:04.170Z,84.33
2022-09-28T17:19:04.825Z,84.35
2022-09-28T17:21:35.284Z,84.62
2022-09-28T17:24:05.720Z,84.62
2022-09-28T17:26:36.171Z,84.58
2022-09-28T17:29:06.621Z,85.17
2022-09-28T17:31:37.185Z,85.23
2022-09-28T17:34:07.475Z,84.86
2022-09-28T17:36:37.937Z,84.67
2022-09-28T17:39:08.323Z,84.43
2022-09-28T17:41:38.767Z,84.51
2022-09-28T17:44:09.174Z,84.55
2022-09-28T17:46:39.744Z,84.74
2022-09-28T17:49:10.033Z,84.67
2022-09-28T17:51:40.455Z,84.52
2022-09-28T17:54:10.874Z,84.37
2022-09-28T17:56:41.304Z,84.63
2022-09-28T17:59:11.863Z,84.69
2022-09-28T18:01:42.313Z,84.76
2022-09-28T18:04:19.190Z,84.92
2022-09-28T18:06:43.046Z,85.22
2022-09-28T18:09:13.457Z,85.31
2022-09-28T18:11:43.912Z,85.27
2022-09-28T18:14:14.342Z,85.37
2022-09-28T18:16:44.817Z,85.33
2022-09-28T18:19:15.228Z,85.55
2022-09-28T18:21:45.694Z,85.40
2022-09-28T18:24:16.208Z,85.67
2022-09-28T18:26:46.621Z,85.55
2022-09-28T18:29:17.174Z,85.51
2022-09-28T18:31:47.722Z,85.65
2022-09-28T18:34:18.110Z,85.71
2022-09-28T18:36:48.567Z,85.77
2022-09-28T18:39:19.149Z,85.77
2022-09-28T18:41:49.177Z,86.13
2022-09-28T18:44:19.341Z,86.29
2022-09-28T18:46:49.962Z,86.31
2022-09-28T18:49:20.537Z,86.17
2022-09-28T18:51:50.904Z,86.50
2022-09-28T18:54:21.293Z,86.47
2022-09-28T18:56:51.879Z,86.51
2022-09-28T18:59:22.461Z,86.55
2022-09-28T19:01:53.071Z,86.64
2022-09-28T19:04:23.333Z,86.62
2022-09-28T19:06:53.846Z,86.67
2022-09-28T19:09:24.336Z,86.94
2022-09-28T19:11:54.863Z,86.78
2022-09-28T19:14:25.371Z,86.93
2022-09-28T19:16:55.898Z,87.20
2022-09-28T19:19:26.391Z,87.07
2022-09-28T19:21:56.937Z,86.96
2022-09-28T19:24:27.425Z,87.02
2022-09-28T19:26:58.088Z,87.71
2022-09-28T19:29:28.466Z,87.60
2022-09-28T19:31:59.037Z,87.96
2022-09-28T19:34:29.542Z,87.90
2022-09-28T19:37:00.099Z,88.10
2022-09-28T19:39:30.631Z,87.93
2022-09-28T19:42:01.189Z,87.68
2022-09-28T19:44:31.691Z,87.70
2022-09-28T19:47:02.377Z,87.84
2022-09-28T19:49:32.772Z,87.81
2022-09-28T19:52:14.576Z,87.86
2022-09-28T19:54:36.503Z,87.95
2022-09-28T19:57:04.434Z,87.94
2022-09-28T19:59:35.003Z,88.08
2022-09-28T20:02:05.565Z,88.01
2022-09-28T20:04:36.143Z,87.99
2022-09-28T20:07:06.684Z,88.12
2022-09-28T20:09:37.178Z,88.16
2022-09-28T20:12:07.757Z,88.20
2022-09-28T20:14:40.478Z,88.46
2022-09-28T20:17:08.892Z,88.53
2022-09-28T20:19:39.414Z,88.60
2022-09-28T20:22:09.928Z,88.62
2022-09-28T20:24:40.472Z,89.21
2022-09-28T20:27:11.026Z,88.86
2022-09-28T20:29:41.623Z,88.88
2022-09-28T20:32:12.150Z,88.79
2022-09-28T20:34:42.667Z,88.61
2022-09-28T20:37:13.464Z,88.70
2022-09-28T20:39:45.051Z,88.72
2022-09-28T20:42:14.356Z,88.51
2022-09-28T20:44:44.824Z,88.42
2022-09-28T20:47:15.402Z,88.54
2022-09-28T20:49:45.920Z,88.53
2022-09-28T20:52:16.534Z,88.43
2022-09-28T20:54:47.083Z,88.49
2022-09-28T20:57:17.792Z,88.51
2022-09-28T20:59:53.617Z,88.56
2022-09-28T21:02:18.792Z,88.57
2022-09-28T21:04:49.275Z,88.71
2022-09-28T21:07:19.849Z,88.75
2022-09-28T21:09:50.447Z,88.84
2022-09-28T21:12:21.076Z,88.86
2022-09-28T21:14:51.550Z,88.79
2022-09-28T21:17:22.153Z,88.70
2022-09-28T21:19:52.688Z,88.58
2022-09-28T21:22:23.302Z,88.65
2022-09-28T21:24:53.519Z,88.60
2022-09-28T21:27:24.065Z,88.73
2022-09-28T21:29:54.671Z,88.69
2022-09-28T21:32:25.257Z,88.62
2022-09-28T21:34:55.769Z,88.40
2022-09-28T21:37:26.169Z,88.28
2022-09-28T21:39:56.686Z,87.75
2022-09-28T21:42:27.337Z,87.82
2022-09-28T21:44:59.477Z,87.88
2022-09-28T21:47:28.425Z,87.84
2022-09-28T21:49:59.010Z,87.93
2022-09-28T21:52:29.628Z,88.16
2022-09-28T21:55:00.237Z,88.14
2022-09-28T21:57:30.831Z,88.22
2022-09-28T22:00:01.458Z,88.20
2022-09-28T22:02:32.059Z,88.24
2022-09-28T22:05:02.620Z,88.41
2022-09-28T22:07:33.237Z,88.49
2022-09-28T22:10:03.806Z,88.65
2022-09-28T22:12:34.436Z,88.77
2022-09-28T22:15:05.016Z,88.60
2022-09-28T22:17:35.664Z,88.62
2022-09-28T22:20:06.230Z,88.75
2022-09-28T22:22:36.891Z,88.74
2022-09-28T22:25:07.566Z,88.61
2022-09-28T22:27:38.083Z,88.77
2022-09-28T22:30:08.710Z,88.96
2022-09-28T22:32:39.092Z,89.36
2022-09-28T22:35:09.609Z,89.36
2022-09-28T22:37:40.241Z,89.66
2022-09-28T22:40:10.938Z,89.77
2022-09-28T22:42:41.460Z,90.17
2022-09-28T22:45:12.060Z,90.59
2022-09-28T22:47:42.718Z,90.52
2022-09-28T22:50:13.363Z,90.74
2022-09-28T22:52:43.931Z,90.79
2022-09-28T22:55:14.536Z,92.07
2022-09-28T22:57:45.166Z,92.64
2022-09-28T23:00:15.774Z,92.13
2022-09-28T23:02:46.531Z,92.02
2022-09-28T23:05:17.041Z,91.98
2022-09-28T23:07:47.674Z,91.83
2022-09-28T23:10:18.277Z,91.46
2022-09-28T23:12:48.930Z,91.54
2022-09-28T23:15:19.189Z,91.90
2022-09-28T23:17:49.836Z,91.67
2022-09-28T23:20:20.431Z,91.73
2022-09-28T23:22:51.067Z,91.78
2022-09-28T23:25:21.683Z,91.72
2022-09-28T23:27:52.331Z,91.58
2022-09-28T23:30:22.956Z,91.77
2022-09-28T23:32:53.595Z,91.57
2022-09-28T23:35:24.196Z,91.68
2022-09-28T23:37:54.674Z,91.61
2022-09-28T23:40:25.259Z,91.55
2022-09-28T23:42:55.949Z,91.43
2022-09-28T23:45:26.178Z,91.35
2022-09-28T23:47:56.580Z,91.37
2022-09-28T23:50:27.078Z,91.20
2022-09-28T23:52:57.704Z,91.37
2022-09-28T23:55:28.329Z,91.44
2022-09-28T23:57:58.964Z,91.39
